sensor_id;sensor_type;location;lat;lon;timestamp;P1;durP1;ratioP1;P2;durP2;ratioP2
52964;SDS011;42923;53.220;6.528;2023-05-10T00:00:33;24.35;;;15.82;;
52964;SDS011;42923;53.220;6.528;2023-05-10T00:02:59;19.98;;;14.43;;
52964;SDS011;42923;53.220;6.528;2023-05-10T00:05:24;21.92;;;15.15;;
52964;SDS011;42923;53.220;6.528;2023-05-10T00:07:50;21.73;;;14.00;;
52964;SDS011;42923;53.220;6.528;2023-05-10T00:10:16;19.42;;;13.63;;
52964;SDS011;42923;53.220;6.528;2023-05-10T00:12:41;19.23;;;13.07;;
52964;SDS011;42923;53.220;6.528;2023-05-10T00:15:07;24.80;;;13.52;;
52964;SDS011;42923;53.220;6.528;2023-05-10T00:17:33;19.27;;;12.65;;
52964;SDS011;42923;53.220;6.528;2023-05-10T00:19:59;18.92;;;13.25;;
52964;SDS011;42923;53.220;6.528;2023-05-10T00:22:25;18.80;;;12.55;;
52964;SDS011;42923;53.220;6.528;2023-05-10T00:24:51;18.08;;;12.30;;
52964;SDS011;42923;53.220;6.528;2023-05-10T00:27:17;16.45;;;11.73;;
52964;SDS011;42923;53.220;6.528;2023-05-10T00:29:42;13.55;;;11.23;;
52964;SDS011;42923;53.220;6.528;2023-05-10T00:32:08;16.38;;;11.55;;
52964;SDS011;42923;53.220;6.528;2023-05-10T00:34:34;13.73;;;9.75;;
52964;SDS011;42923;53.220;6.528;2023-05-10T00:36:59;15.00;;;10.23;;
52964;SDS011;42923;53.220;6.528;2023-05-10T00:39:25;16.23;;;10.77;;
52964;SDS011;42923;53.220;6.528;2023-05-10T00:41:53;16.95;;;11.95;;
52964;SDS011;42923;53.220;6.528;2023-05-10T00:44:20;18.15;;;11.57;;
52964;SDS011;42923;53.220;6.528;2023-05-10T00:46:46;19.00;;;11.43;;
52964;SDS011;42923;53.220;6.528;2023-05-10T00:49:12;16.13;;;11.32;;
52964;SDS011;42923;53.220;6.528;2023-05-10T00:51:38;17.08;;;10.63;;
52964;SDS011;42923;53.220;6.528;2023-05-10T00:54:04;15.18;;;10.20;;
52964;SDS011;42923;53.220;6.528;2023-05-10T00:56:30;12.75;;;9.13;;
52964;SDS011;42923;53.220;6.528;2023-05-10T00:58:56;13.40;;;9.98;;
52964;SDS011;42923;53.220;6.528;2023-05-10T01:01:22;14.77;;;10.07;;
52964;SDS011;42923;53.220;6.528;2023-05-10T01:03:48;13.52;;;9.65;;
52964;SDS011;42923;53.220;6.528;2023-05-10T01:06:14;16.65;;;11.07;;
52964;SDS011;42923;53.220;6.528;2023-05-10T01:08:40;13.57;;;9.77;;
52964;SDS011;42923;53.220;6.528;2023-05-10T01:11:06;20.40;;;11.38;;
52964;SDS011;42923;53.220;6.528;2023-05-10T01:13:36;15.23;;;10.27;;
52964;SDS011;42923;53.220;6.528;2023-05-10T01:16:04;15.90;;;10.68;;
52964;SDS011;42923;53.220;6.528;2023-05-10T01:18:32;13.52;;;10.80;;
52964;SDS011;42923;53.220;6.528;2023-05-10T01:21:20;16.45;;;11.93;;
52964;SDS011;42923;53.220;6.528;2023-05-10T01:32:21;14.70;;;10.20;;
52964;SDS011;42923;53.220;6.528;2023-05-10T01:35:02;16.70;;;11.20;;
52964;SDS011;42923;53.220;6.528;2023-05-10T01:37:34;17.83;;;11.60;;
52964;SDS011;42923;53.220;6.528;2023-05-10T01:40:31;17.52;;;11.15;;
52964;SDS011;42923;53.220;6.528;2023-05-10T01:43:03;15.45;;;11.02;;
52964;SDS011;42923;53.220;6.528;2023-05-10T01:45:41;10.15;;;9.13;;
52964;SDS011;42923;53.220;6.528;2023-05-10T01:48:15;11.95;;;9.73;;
52964;SDS011;42923;53.220;6.528;2023-05-10T01:50:45;13.10;;;9.63;;
52964;SDS011;42923;53.220;6.528;2023-05-10T01:53:12;17.50;;;10.60;;
52964;SDS011;42923;53.220;6.528;2023-05-10T01:55:47;25.40;;;13.10;;
52964;SDS011;42923;53.220;6.528;2023-05-10T01:58:18;23.15;;;12.32;;
52964;SDS011;42923;53.220;6.528;2023-05-10T02:00:50;16.77;;;11.80;;
52964;SDS011;42923;53.220;6.528;2023-05-10T02:03:20;17.48;;;12.10;;
52964;SDS011;42923;53.220;6.528;2023-05-10T02:05:48;11.88;;;10.13;;
52964;SDS011;42923;53.220;6.528;2023-05-10T02:08:16;13.10;;;9.93;;
52964;SDS011;42923;53.220;6.528;2023-05-10T02:10:44;12.63;;;9.88;;
52964;SDS011;42923;53.220;6.528;2023-05-10T02:13:11;12.77;;;9.00;;
52964;SDS011;42923;53.220;6.528;2023-05-10T02:15:38;11.35;;;10.15;;
52964;SDS011;42923;53.220;6.528;2023-05-10T02:18:05;14.00;;;10.65;;
52964;SDS011;42923;53.220;6.528;2023-05-10T02:20:32;12.18;;;10.73;;
52964;SDS011;42923;53.220;6.528;2023-05-10T02:23:00;10.02;;;8.10;;
52964;SDS011;42923;53.220;6.528;2023-05-10T02:25:28;13.40;;;10.27;;
52964;SDS011;42923;53.220;6.528;2023-05-10T02:27:56;15.55;;;10.18;;
52964;SDS011;42923;53.220;6.528;2023-05-10T02:30:23;19.73;;;11.60;;
52964;SDS011;42923;53.220;6.528;2023-05-10T02:32:50;14.30;;;10.85;;
52964;SDS011;42923;53.220;6.528;2023-05-10T02:35:17;16.77;;;11.40;;
52964;SDS011;42923;53.220;6.528;2023-05-10T02:37:43;14.68;;;11.15;;
52964;SDS011;42923;53.220;6.528;2023-05-10T02:40:11;17.77;;;12.27;;
52964;SDS011;42923;53.220;6.528;2023-05-10T02:42:38;16.50;;;13.35;;
52964;SDS011;42923;53.220;6.528;2023-05-10T02:45:08;24.63;;;13.30;;
52964;SDS011;42923;53.220;6.528;2023-05-10T02:47:38;21.92;;;13.70;;
52964;SDS011;42923;53.220;6.528;2023-05-10T02:50:04;29.17;;;15.05;;
52964;SDS011;42923;53.220;6.528;2023-05-10T02:52:35;21.65;;;12.88;;
52964;SDS011;42923;53.220;6.528;2023-05-10T02:55:04;26.85;;;14.82;;
52964;SDS011;42923;53.220;6.528;2023-05-10T02:57:32;39.72;;;17.00;;
52964;SDS011;42923;53.220;6.528;2023-05-10T02:59:59;28.45;;;17.85;;
52964;SDS011;42923;53.220;6.528;2023-05-10T03:02:27;27.45;;;15.80;;
52964;SDS011;42923;53.220;6.528;2023-05-10T03:04:55;32.45;;;17.13;;
52964;SDS011;42923;53.220;6.528;2023-05-10T03:07:21;31.80;;;16.88;;
52964;SDS011;42923;53.220;6.528;2023-05-10T03:09:48;29.23;;;16.52;;
52964;SDS011;42923;53.220;6.528;2023-05-10T03:15:11;31.00;;;17.35;;
52964;SDS011;42923;53.220;6.528;2023-05-10T03:20:35;34.33;;;17.25;;
52964;SDS011;42923;53.220;6.528;2023-05-10T03:26:07;26.27;;;16.05;;
52964;SDS011;42923;53.220;6.528;2023-05-10T03:28:34;30.40;;;17.75;;
52964;SDS011;42923;53.220;6.528;2023-05-10T03:31:02;34.05;;;18.40;;
52964;SDS011;42923;53.220;6.528;2023-05-10T03:33:31;32.05;;;17.67;;
52964;SDS011;42923;53.220;6.528;2023-05-10T03:35:58;30.02;;;18.10;;
52964;SDS011;42923;53.220;6.528;2023-05-10T03:38:25;29.15;;;17.35;;
52964;SDS011;42923;53.220;6.528;2023-05-10T03:40:50;35.72;;;18.58;;
52964;SDS011;42923;53.220;6.528;2023-05-10T03:43:16;35.45;;;19.10;;
52964;SDS011;42923;53.220;6.528;2023-05-10T03:45:42;37.08;;;18.92;;
52964;SDS011;42923;53.220;6.528;2023-05-10T03:48:07;33.40;;;19.33;;
52964;SDS011;42923;53.220;6.528;2023-05-10T03:50:33;35.10;;;20.48;;
52964;SDS011;42923;53.220;6.528;2023-05-10T03:52:59;49.58;;;21.80;;
52964;SDS011;42923;53.220;6.528;2023-05-10T03:55:26;40.42;;;19.30;;
52964;SDS011;42923;53.220;6.528;2023-05-10T03:57:53;36.42;;;19.92;;
52964;SDS011;42923;53.220;6.528;2023-05-10T04:00:21;34.13;;;17.75;;
52964;SDS011;42923;53.220;6.528;2023-05-10T04:02:49;32.28;;;18.30;;
52964;SDS011;42923;53.220;6.528;2023-05-10T04:05:18;34.25;;;17.30;;
52964;SDS011;42923;53.220;6.528;2023-05-10T04:07:44;28.50;;;14.75;;
52964;SDS011;42923;53.220;6.528;2023-05-10T04:10:10;29.48;;;13.93;;
52964;SDS011;42923;53.220;6.528;2023-05-10T04:12:36;22.88;;;13.82;;
52964;SDS011;42923;53.220;6.528;2023-05-10T04:15:02;18.65;;;11.27;;
52964;SDS011;42923;53.220;6.528;2023-05-10T04:17:28;20.90;;;11.32;;
52964;SDS011;42923;53.220;6.528;2023-05-10T04:19:54;15.65;;;9.55;;
52964;SDS011;42923;53.220;6.528;2023-05-10T04:22:21;15.82;;;10.13;;
52964;SDS011;42923;53.220;6.528;2023-05-10T04:24:46;15.63;;;10.07;;
52964;SDS011;42923;53.220;6.528;2023-05-10T04:27:12;16.98;;;9.70;;
52964;SDS011;42923;53.220;6.528;2023-05-10T04:29:38;17.02;;;11.13;;
52964;SDS011;42923;53.220;6.528;2023-05-10T04:32:03;16.52;;;9.70;;
52964;SDS011;42923;53.220;6.528;2023-05-10T04:34:29;14.95;;;10.05;;
52964;SDS011;42923;53.220;6.528;2023-05-10T04:36:55;19.92;;;11.05;;
52964;SDS011;42923;53.220;6.528;2023-05-10T04:39:21;16.45;;;9.18;;
52964;SDS011;42923;53.220;6.528;2023-05-10T04:41:46;11.60;;;9.07;;
52964;SDS011;42923;53.220;6.528;2023-05-10T04:44:12;15.43;;;9.10;;
52964;SDS011;42923;53.220;6.528;2023-05-10T04:46:37;12.02;;;9.30;;
52964;SDS011;42923;53.220;6.528;2023-05-10T04:49:03;15.52;;;9.40;;
52964;SDS011;42923;53.220;6.528;2023-05-10T04:51:29;14.00;;;8.82;;
52964;SDS011;42923;53.220;6.528;2023-05-10T04:53:55;15.43;;;8.70;;
52964;SDS011;42923;53.220;6.528;2023-05-10T04:56:21;12.73;;;8.18;;
52964;SDS011;42923;53.220;6.528;2023-05-10T04:58:47;18.17;;;8.68;;
52964;SDS011;42923;53.220;6.528;2023-05-10T05:01:13;12.40;;;9.25;;
52964;SDS011;42923;53.220;6.528;2023-05-10T05:03:38;13.20;;;9.02;;
52964;SDS011;42923;53.220;6.528;2023-05-10T05:06:04;14.90;;;9.48;;
52964;SDS011;42923;53.220;6.528;2023-05-10T05:08:30;22.33;;;10.52;;
52964;SDS011;42923;53.220;6.528;2023-05-10T05:10:56;16.13;;;9.15;;
52964;SDS011;42923;53.220;6.528;2023-05-10T05:13:22;14.27;;;8.80;;
52964;SDS011;42923;53.220;6.528;2023-05-10T05:15:47;13.50;;;9.48;;
52964;SDS011;42923;53.220;6.528;2023-05-10T05:18:13;15.93;;;10.40;;
52964;SDS011;42923;53.220;6.528;2023-05-10T05:20:39;15.43;;;10.90;;
52964;SDS011;42923;53.220;6.528;2023-05-10T05:23:04;18.52;;;10.63;;
52964;SDS011;42923;53.220;6.528;2023-05-10T05:25:30;13.15;;;9.73;;
52964;SDS011;42923;53.220;6.528;2023-05-10T05:27:56;17.35;;;10.18;;
52964;SDS011;42923;53.220;6.528;2023-05-10T05:30:22;16.70;;;9.48;;
52964;SDS011;42923;53.220;6.528;2023-05-10T05:32:47;17.70;;;9.55;;
52964;SDS011;42923;53.220;6.528;2023-05-10T05:35:13;16.48;;;10.15;;
52964;SDS011;42923;53.220;6.528;2023-05-10T05:37:39;24.27;;;11.45;;
52964;SDS011;42923;53.220;6.528;2023-05-10T05:40:05;21.95;;;10.85;;
52964;SDS011;42923;53.220;6.528;2023-05-10T05:42:31;17.30;;;9.82;;
52964;SDS011;42923;53.220;6.528;2023-05-10T05:44:57;20.48;;;9.98;;
52964;SDS011;42923;53.220;6.528;2023-05-10T05:47:23;15.75;;;9.60;;
52964;SDS011;42923;53.220;6.528;2023-05-10T05:49:48;24.80;;;10.02;;
52964;SDS011;42923;53.220;6.528;2023-05-10T05:52:14;16.98;;;9.90;;
52964;SDS011;42923;53.220;6.528;2023-05-10T05:54:40;16.92;;;8.93;;
52964;SDS011;42923;53.220;6.528;2023-05-10T05:57:05;11.93;;;8.27;;
52964;SDS011;42923;53.220;6.528;2023-05-10T05:59:31;14.50;;;7.93;;
52964;SDS011;42923;53.220;6.528;2023-05-10T06:01:57;14.63;;;7.72;;
52964;SDS011;42923;53.220;6.528;2023-05-10T06:04:22;11.70;;;6.20;;
52964;SDS011;42923;53.220;6.528;2023-05-10T06:06:48;6.93;;;4.60;;
52964;SDS011;42923;53.220;6.528;2023-05-10T06:09:14;7.38;;;4.28;;
52964;SDS011;42923;53.220;6.528;2023-05-10T06:11:39;12.18;;;5.13;;
52964;SDS011;42923;53.220;6.528;2023-05-10T06:14:05;3.90;;;3.10;;
52964;SDS011;42923;53.220;6.528;2023-05-10T06:16:34;4.13;;;3.10;;
52964;SDS011;42923;53.220;6.528;2023-05-10T06:19:00;3.92;;;2.80;;
52964;SDS011;42923;53.220;6.528;2023-05-10T06:21:26;3.08;;;2.15;;
52964;SDS011;42923;53.220;6.528;2023-05-10T06:23:51;2.33;;;2.08;;
52964;SDS011;42923;53.220;6.528;2023-05-10T06:26:17;3.28;;;2.65;;
52964;SDS011;42923;53.220;6.528;2023-05-10T06:28:43;4.13;;;3.20;;
52964;SDS011;42923;53.220;6.528;2023-05-10T06:31:09;6.55;;;4.88;;
52964;SDS011;42923;53.220;6.528;2023-05-10T06:33:36;9.20;;;6.65;;
52964;SDS011;42923;53.220;6.528;2023-05-10T06:36:02;15.88;;;10.43;;
52964;SDS011;42923;53.220;6.528;2023-05-10T06:38:28;16.17;;;11.55;;
52964;SDS011;42923;53.220;6.528;2023-05-10T06:40:53;18.50;;;11.38;;
52964;SDS011;42923;53.220;6.528;2023-05-10T06:43:19;16.10;;;10.63;;
52964;SDS011;42923;53.220;6.528;2023-05-10T06:45:45;18.13;;;11.10;;
52964;SDS011;42923;53.220;6.528;2023-05-10T06:48:10;16.55;;;10.95;;
52964;SDS011;42923;53.220;6.528;2023-05-10T06:50:36;14.35;;;10.25;;
52964;SDS011;42923;53.220;6.528;2023-05-10T06:53:02;14.68;;;11.18;;
52964;SDS011;42923;53.220;6.528;2023-05-10T06:55:27;21.73;;;12.00;;
52964;SDS011;42923;53.220;6.528;2023-05-10T06:57:54;18.10;;;10.02;;
52964;SDS011;42923;53.220;6.528;2023-05-10T07:00:20;19.85;;;10.43;;
52964;SDS011;42923;53.220;6.528;2023-05-10T07:02:46;16.00;;;9.23;;
52964;SDS011;42923;53.220;6.528;2023-05-10T07:05:12;14.80;;;8.50;;
52964;SDS011;42923;53.220;6.528;2023-05-10T07:07:38;13.95;;;8.38;;
52964;SDS011;42923;53.220;6.528;2023-05-10T07:10:04;8.82;;;7.22;;
52964;SDS011;42923;53.220;6.528;2023-05-10T07:12:30;13.70;;;8.40;;
52964;SDS011;42923;53.220;6.528;2023-05-10T07:14:56;12.20;;;7.32;;
52964;SDS011;42923;53.220;6.528;2023-05-10T07:17:22;9.13;;;7.28;;
52964;SDS011;42923;53.220;6.528;2023-05-10T07:19:48;7.90;;;6.03;;
52964;SDS011;42923;53.220;6.528;2023-05-10T07:22:14;8.32;;;6.38;;
52964;SDS011;42923;53.220;6.528;2023-05-10T07:24:40;6.88;;;5.90;;
52964;SDS011;42923;53.220;6.528;2023-05-10T07:27:06;7.05;;;5.68;;
52964;SDS011;42923;53.220;6.528;2023-05-10T07:29:32;6.45;;;5.20;;
52964;SDS011;42923;53.220;6.528;2023-05-10T07:31:57;6.80;;;4.88;;
52964;SDS011;42923;53.220;6.528;2023-05-10T07:34:23;4.95;;;4.45;;
52964;SDS011;42923;53.220;6.528;2023-05-10T07:36:49;3.53;;;3.22;;
52964;SDS011;42923;53.220;6.528;2023-05-10T07:39:15;2.80;;;2.58;;
52964;SDS011;42923;53.220;6.528;2023-05-10T07:41:41;3.85;;;2.60;;
52964;SDS011;42923;53.220;6.528;2023-05-10T07:44:07;2.28;;;2.08;;
52964;SDS011;42923;53.220;6.528;2023-05-10T07:46:33;2.97;;;2.45;;
52964;SDS011;42923;53.220;6.528;2023-05-10T07:48:59;2.85;;;2.58;;
52964;SDS011;42923;53.220;6.528;2023-05-10T07:51:24;3.20;;;2.90;;
52964;SDS011;42923;53.220;6.528;2023-05-10T07:53:50;3.15;;;2.95;;
52964;SDS011;42923;53.220;6.528;2023-05-10T07:56:34;3.92;;;3.22;;
52964;SDS011;42923;53.220;6.528;2023-05-10T07:59:00;4.72;;;3.80;;
52964;SDS011;42923;53.220;6.528;2023-05-10T08:01:32;3.97;;;3.35;;
52964;SDS011;42923;53.220;6.528;2023-05-10T08:03:59;4.18;;;2.97;;
52964;SDS011;42923;53.220;6.528;2023-05-10T08:06:26;4.10;;;2.72;;
52964;SDS011;42923;53.220;6.528;2023-05-10T08:08:55;5.65;;;3.83;;
52964;SDS011;42923;53.220;6.528;2023-05-10T08:11:21;5.70;;;3.45;;
52964;SDS011;42923;53.220;6.528;2023-05-10T08:13:47;4.15;;;3.72;;
52964;SDS011;42923;53.220;6.528;2023-05-10T08:16:14;5.05;;;3.70;;
52964;SDS011;42923;53.220;6.528;2023-05-10T08:18:41;5.60;;;4.18;;
52964;SDS011;42923;53.220;6.528;2023-05-10T08:21:06;6.10;;;4.13;;
52964;SDS011;42923;53.220;6.528;2023-05-10T08:23:32;4.88;;;3.90;;
52964;SDS011;42923;53.220;6.528;2023-05-10T08:25:58;4.38;;;3.97;;
52964;SDS011;42923;53.220;6.528;2023-05-10T08:28:25;6.57;;;3.88;;
52964;SDS011;42923;53.220;6.528;2023-05-10T08:30:50;4.30;;;3.90;;
52964;SDS011;42923;53.220;6.528;2023-05-10T08:33:17;5.18;;;4.30;;
52964;SDS011;42923;53.220;6.528;2023-05-10T08:35:43;5.18;;;4.25;;
52964;SDS011;42923;53.220;6.528;2023-05-10T08:38:09;5.18;;;4.53;;
52964;SDS011;42923;53.220;6.528;2023-05-10T08:40:36;7.03;;;5.55;;
52964;SDS011;42923;53.220;6.528;2023-05-10T08:43:06;4.95;;;4.55;;
52964;SDS011;42923;53.220;6.528;2023-05-10T08:45:36;5.07;;;3.58;;
52964;SDS011;42923;53.220;6.528;2023-05-10T08:48:10;4.53;;;4.13;;
52964;SDS011;42923;53.220;6.528;2023-05-10T08:50:37;6.78;;;3.85;;
52964;SDS011;42923;53.220;6.528;2023-05-10T08:53:12;4.20;;;3.75;;
52964;SDS011;42923;53.220;6.528;2023-05-10T08:55:39;4.25;;;3.78;;
52964;SDS011;42923;53.220;6.528;2023-05-10T08:58:07;4.63;;;3.22;;
52964;SDS011;42923;53.220;6.528;2023-05-10T09:00:34;4.97;;;4.10;;
52964;SDS011;42923;53.220;6.528;2023-05-10T09:03:01;6.65;;;4.25;;
52964;SDS011;42923;53.220;6.528;2023-05-10T09:05:27;6.80;;;5.60;;
52964;SDS011;42923;53.220;6.528;2023-05-10T09:07:53;6.45;;;5.63;;
52964;SDS011;42923;53.220;6.528;2023-05-10T09:10:20;8.60;;;4.90;;
52964;SDS011;42923;53.220;6.528;2023-05-10T09:12:46;5.68;;;4.95;;
52964;SDS011;42923;53.220;6.528;2023-05-10T09:15:17;6.75;;;5.60;;
52964;SDS011;42923;53.220;6.528;2023-05-10T09:17:45;7.57;;;5.72;;
52964;SDS011;42923;53.220;6.528;2023-05-10T09:20:11;7.50;;;5.38;;
52964;SDS011;42923;53.220;6.528;2023-05-10T09:22:37;7.68;;;5.35;;
52964;SDS011;42923;53.220;6.528;2023-05-10T09:25:04;6.63;;;5.50;;
52964;SDS011;42923;53.220;6.528;2023-05-10T09:27:37;7.13;;;5.90;;
52964;SDS011;42923;53.220;6.528;2023-05-10T09:30:10;5.72;;;4.55;;
52964;SDS011;42923;53.220;6.528;2023-05-10T09:32:41;7.60;;;5.00;;
52964;SDS011;42923;53.220;6.528;2023-05-10T09:35:09;8.48;;;6.25;;
52964;SDS011;42923;53.220;6.528;2023-05-10T09:37:36;6.90;;;5.65;;
52964;SDS011;42923;53.220;6.528;2023-05-10T09:40:12;7.38;;;6.18;;
52964;SDS011;42923;53.220;6.528;2023-05-10T09:42:41;6.88;;;6.13;;
52964;SDS011;42923;53.220;6.528;2023-05-10T09:45:08;6.50;;;5.18;;
52964;SDS011;42923;53.220;6.528;2023-05-10T09:47:34;6.78;;;4.40;;
52964;SDS011;42923;53.220;6.528;2023-05-10T09:50:01;5.18;;;4.13;;
52964;SDS011;42923;53.220;6.528;2023-05-10T09:52:30;4.57;;;4.00;;
52964;SDS011;42923;53.220;6.528;2023-05-10T09:54:59;5.45;;;3.35;;
52964;SDS011;42923;53.220;6.528;2023-05-10T09:57:24;4.32;;;3.78;;
52964;SDS011;42923;53.220;6.528;2023-05-10T09:59:54;4.05;;;3.65;;
52964;SDS011;42923;53.220;6.528;2023-05-10T10:02:19;6.32;;;4.65;;
52964;SDS011;42923;53.220;6.528;2023-05-10T10:04:48;6.18;;;4.30;;
52964;SDS011;42923;53.220;6.528;2023-05-10T10:07:15;5.47;;;4.35;;
52964;SDS011;42923;53.220;6.528;2023-05-10T10:09:48;5.70;;;4.50;;
52964;SDS011;42923;53.220;6.528;2023-05-10T10:12:15;4.93;;;4.43;;
52964;SDS011;42923;53.220;6.528;2023-05-10T10:14:41;5.97;;;4.28;;
52964;SDS011;42923;53.220;6.528;2023-05-10T10:17:07;3.40;;;3.10;;
52964;SDS011;42923;53.220;6.528;2023-05-10T10:19:34;4.72;;;3.97;;
52964;SDS011;42923;53.220;6.528;2023-05-10T10:22:00;6.68;;;4.60;;
52964;SDS011;42923;53.220;6.528;2023-05-10T10:24:26;4.43;;;3.80;;
52964;SDS011;42923;53.220;6.528;2023-05-10T10:26:52;5.63;;;3.88;;
52964;SDS011;42923;53.220;6.528;2023-05-10T10:29:26;4.18;;;3.72;;
52964;SDS011;42923;53.220;6.528;2023-05-10T10:34:55;6.22;;;5.18;;
52964;SDS011;42923;53.220;6.528;2023-05-10T10:37:21;5.80;;;4.28;;
52964;SDS011;42923;53.220;6.528;2023-05-10T10:39:50;6.47;;;5.20;;
52964;SDS011;42923;53.220;6.528;2023-05-10T10:42:37;6.63;;;5.55;;
52964;SDS011;42923;53.220;6.528;2023-05-10T10:45:15;7.68;;;5.53;;
52964;SDS011;42923;53.220;6.528;2023-05-10T10:47:41;5.97;;;5.07;;
52964;SDS011;42923;53.220;6.528;2023-05-10T10:50:08;5.70;;;5.10;;
52964;SDS011;42923;53.220;6.528;2023-05-10T10:52:38;5.45;;;4.90;;
52964;SDS011;42923;53.220;6.528;2023-05-10T11:02:43;5.07;;;4.57;;
52964;SDS011;42923;53.220;6.528;2023-05-10T11:05:23;6.47;;;5.70;;
52964;SDS011;42923;53.220;6.528;2023-05-10T11:07:53;9.88;;;6.75;;
52964;SDS011;42923;53.220;6.528;2023-05-10T11:10:20;7.00;;;6.07;;
52964;SDS011;42923;53.220;6.528;2023-05-10T11:12:51;6.30;;;5.07;;
52964;SDS011;42923;53.220;6.528;2023-05-10T11:15:33;8.57;;;6.15;;
52964;SDS011;42923;53.220;6.528;2023-05-10T11:20:50;7.47;;;6.07;;
52964;SDS011;42923;53.220;6.528;2023-05-10T11:23:16;7.72;;;6.00;;
52964;SDS011;42923;53.220;6.528;2023-05-10T11:25:43;10.93;;;6.20;;
52964;SDS011;42923;53.220;6.528;2023-05-10T11:28:10;8.43;;;6.93;;
52964;SDS011;42923;53.220;6.528;2023-05-10T11:30:38;10.75;;;6.20;;
52964;SDS011;42923;53.220;6.528;2023-05-10T11:33:05;9.07;;;7.57;;
52964;SDS011;42923;53.220;6.528;2023-05-10T11:35:36;10.85;;;7.50;;
52964;SDS011;42923;53.220;6.528;2023-05-10T11:38:07;11.43;;;7.07;;
52964;SDS011;42923;53.220;6.528;2023-05-10T11:40:34;8.23;;;6.50;;
52964;SDS011;42923;53.220;6.528;2023-05-10T11:43:00;8.57;;;6.70;;
52964;SDS011;42923;53.220;6.528;2023-05-10T11:45:27;9.60;;;7.45;;
52964;SDS011;42923;53.220;6.528;2023-05-10T11:47:54;9.32;;;7.85;;
52964;SDS011;42923;53.220;6.528;2023-05-10T11:50:20;11.00;;;7.95;;
52964;SDS011;42923;53.220;6.528;2023-05-10T11:52:50;9.20;;;8.20;;
52964;SDS011;42923;53.220;6.528;2023-05-10T11:55:19;11.07;;;9.07;;
52964;SDS011;42923;53.220;6.528;2023-05-10T11:57:45;9.10;;;8.20;;
52964;SDS011;42923;53.220;6.528;2023-05-10T12:00:11;8.52;;;7.60;;
52964;SDS011;42923;53.220;6.528;2023-05-10T12:02:41;10.00;;;8.00;;
52964;SDS011;42923;53.220;6.528;2023-05-10T12:05:07;11.43;;;8.55;;
52964;SDS011;42923;53.220;6.528;2023-05-10T12:07:33;10.18;;;8.00;;
52964;SDS011;42923;53.220;6.528;2023-05-10T12:10:11;10.10;;;7.15;;
52964;SDS011;42923;53.220;6.528;2023-05-10T12:12:45;11.38;;;7.90;;
52964;SDS011;42923;53.220;6.528;2023-05-10T12:15:19;11.38;;;8.63;;
52964;SDS011;42923;53.220;6.528;2023-05-10T12:17:50;10.82;;;8.23;;
52964;SDS011;42923;53.220;6.528;2023-05-10T12:20:19;10.98;;;8.35;;
52964;SDS011;42923;53.220;6.528;2023-05-10T12:22:48;13.65;;;9.40;;
52964;SDS011;42923;53.220;6.528;2023-05-10T12:25:16;12.23;;;9.45;;
52964;SDS011;42923;53.220;6.528;2023-05-10T12:27:52;11.57;;;9.20;;
52964;SDS011;42923;53.220;6.528;2023-05-10T12:30:23;10.75;;;9.32;;
52964;SDS011;42923;53.220;6.528;2023-05-10T12:32:50;13.25;;;9.13;;
52964;SDS011;42923;53.220;6.528;2023-05-10T12:35:17;13.32;;;8.65;;
52964;SDS011;42923;53.220;6.528;2023-05-10T12:37:47;13.68;;;9.70;;
52964;SDS011;42923;53.220;6.528;2023-05-10T12:40:13;12.68;;;8.25;;
52964;SDS011;42923;53.220;6.528;2023-05-10T12:42:39;11.70;;;6.47;;
52964;SDS011;42923;53.220;6.528;2023-05-10T12:45:05;10.45;;;8.15;;
52964;SDS011;42923;53.220;6.528;2023-05-10T12:47:32;10.38;;;8.40;;
52964;SDS011;42923;53.220;6.528;2023-05-10T12:49:59;11.73;;;8.45;;
52964;SDS011;42923;53.220;6.528;2023-05-10T12:52:26;13.60;;;8.82;;
52964;SDS011;42923;53.220;6.528;2023-05-10T12:54:52;10.18;;;8.60;;
52964;SDS011;42923;53.220;6.528;2023-05-10T12:57:19;10.98;;;8.98;;
52964;SDS011;42923;53.220;6.528;2023-05-10T12:59:45;10.15;;;8.23;;
52964;SDS011;42923;53.220;6.528;2023-05-10T13:02:11;9.75;;;8.57;;
52964;SDS011;42923;53.220;6.528;2023-05-10T13:04:38;9.55;;;8.55;;
52964;SDS011;42923;53.220;6.528;2023-05-10T13:07:07;8.43;;;7.30;;
52964;SDS011;42923;53.220;6.528;2023-05-10T13:09:34;8.68;;;7.78;;
52964;SDS011;42923;53.220;6.528;2023-05-10T13:12:00;8.63;;;7.22;;
52964;SDS011;42923;53.220;6.528;2023-05-10T13:14:26;9.77;;;7.20;;
52964;SDS011;42923;53.220;6.528;2023-05-10T13:16:52;8.13;;;7.28;;
52964;SDS011;42923;53.220;6.528;2023-05-10T13:19:18;8.50;;;7.47;;
52964;SDS011;42923;53.220;6.528;2023-05-10T13:21:44;8.13;;;6.75;;
52964;SDS011;42923;53.220;6.528;2023-05-10T13:24:10;10.52;;;6.80;;
52964;SDS011;42923;53.220;6.528;2023-05-10T13:26:39;7.22;;;6.50;;
52964;SDS011;42923;53.220;6.528;2023-05-10T13:29:06;10.25;;;7.07;;
52964;SDS011;42923;53.220;6.528;2023-05-10T13:31:32;11.18;;;7.35;;
52964;SDS011;42923;53.220;6.528;2023-05-10T13:33:58;8.57;;;7.10;;
52964;SDS011;42923;53.220;6.528;2023-05-10T13:36:24;9.30;;;7.45;;
52964;SDS011;42923;53.220;6.528;2023-05-10T13:38:49;8.35;;;7.55;;
52964;SDS011;42923;53.220;6.528;2023-05-10T13:41:15;10.73;;;6.90;;
52964;SDS011;42923;53.220;6.528;2023-05-10T13:43:41;8.98;;;7.05;;
52964;SDS011;42923;53.220;6.528;2023-05-10T13:46:07;9.32;;;7.80;;
52964;SDS011;42923;53.220;6.528;2023-05-10T13:48:32;10.38;;;7.35;;
52964;SDS011;42923;53.220;6.528;2023-05-10T13:50:58;11.00;;;8.35;;
52964;SDS011;42923;53.220;6.528;2023-05-10T13:53:24;8.32;;;7.10;;
52964;SDS011;42923;53.220;6.528;2023-05-10T13:55:50;10.20;;;7.82;;
52964;SDS011;42923;53.220;6.528;2023-05-10T13:58:15;8.05;;;7.22;;
52964;SDS011;42923;53.220;6.528;2023-05-10T14:00:41;8.82;;;7.40;;
52964;SDS011;42923;53.220;6.528;2023-05-10T14:03:07;7.95;;;6.68;;
52964;SDS011;42923;53.220;6.528;2023-05-10T14:05:35;11.90;;;8.90;;
52964;SDS011;42923;53.220;6.528;2023-05-10T14:08:01;9.10;;;7.60;;
52964;SDS011;42923;53.220;6.528;2023-05-10T14:10:27;9.57;;;7.82;;
52964;SDS011;42923;53.220;6.528;2023-05-10T14:12:53;9.23;;;8.20;;
52964;SDS011;42923;53.220;6.528;2023-05-10T14:15:19;13.85;;;9.73;;
52964;SDS011;42923;53.220;6.528;2023-05-10T14:17:45;10.18;;;8.75;;
52964;SDS011;42923;53.220;6.528;2023-05-10T14:20:10;9.85;;;8.43;;
52964;SDS011;42923;53.220;6.528;2023-05-10T14:22:36;11.25;;;8.93;;
52964;SDS011;42923;53.220;6.528;2023-05-10T14:25:02;10.63;;;9.52;;
52964;SDS011;42923;53.220;6.528;2023-05-10T14:27:28;13.40;;;9.90;;
52964;SDS011;42923;53.220;6.528;2023-05-10T14:29:55;11.27;;;8.52;;
52964;SDS011;42923;53.220;6.528;2023-05-10T14:32:21;9.93;;;8.23;;
52964;SDS011;42923;53.220;6.528;2023-05-10T14:34:46;9.85;;;8.85;;
52964;SDS011;42923;53.220;6.528;2023-05-10T14:37:13;11.90;;;8.38;;
52964;SDS011;42923;53.220;6.528;2023-05-10T14:39:38;9.77;;;7.60;;
52964;SDS011;42923;53.220;6.528;2023-05-10T14:42:04;9.15;;;7.57;;
52964;SDS011;42923;53.220;6.528;2023-05-10T14:44:30;10.52;;;8.27;;
52964;SDS011;42923;53.220;6.528;2023-05-10T14:46:56;8.88;;;7.90;;
52964;SDS011;42923;53.220;6.528;2023-05-10T14:49:22;10.02;;;8.63;;
52964;SDS011;42923;53.220;6.528;2023-05-10T14:51:50;9.77;;;8.75;;
52964;SDS011;42923;53.220;6.528;2023-05-10T14:54:16;8.50;;;7.60;;
52964;SDS011;42923;53.220;6.528;2023-05-10T14:56:42;11.95;;;8.98;;
52964;SDS011;42923;53.220;6.528;2023-05-10T14:59:08;9.88;;;8.88;;
52964;SDS011;42923;53.220;6.528;2023-05-10T15:01:34;10.50;;;9.35;;
52964;SDS011;42923;53.220;6.528;2023-05-10T15:04:02;11.50;;;9.65;;
52964;SDS011;42923;53.220;6.528;2023-05-10T15:06:32;11.13;;;9.95;;